Time;durP1;ratioP1;P1;durP2;ratioP2;P2;SDS_P1;SDS_P2;PMS_P1;PMS_P2;Temp;Humidity;BMP_temperature;BMP_pressure;BME280_temperature;BME280_humidity;BME280_pressure;Samples;Min_cycle;Max_cycle;Signal;HPM_P1;HPM_P2
2021/07/22 00:00:04;;;;;;;8.90;5.75;;;;;;;;;;5020372;28;20482;-78
2021/07/22 00:02:30;;;;;;;8.93;5.55;;;;;;;;;;5019626;28;20041;-78
2021/07/22 00:04:56;;;;;;;8.13;6.00;;;;;;;;;;5017812;28;20101;-78
2021/07/22 00:07:22;;;;;;;11.85;6.40;;;;;;;;;;5017433;28;20025;-78
2021/07/22 00:09:48;;;;;;;14.15;6.20;;;;;;;;;;5018255;28;20022;-78
2021/07/22 00:12:15;;;;;;;6.82;5.57;;;;;;;;;;5017556;28;20504;-78
2021/07/22 00:14:41;;;;;;;9.23;6.13;;;;;;;;;;5017188;28;20064;-79
2021/07/22 00:17:08;;;;;;;12.18;6.15;;;;;;;;;;4998808;28;20064;-77
2021/07/22 00:19:34;;;;;;;9.50;6.30;;;;;;;;;;5015623;28;20036;-77
2021/07/22 00:22:00;;;;;;;8.00;6.05;;;;;;;;;;5013411;28;20487;-76
2021/07/22 00:24:27;;;;;;;9.98;6.22;;;;;;;;;;4992483;28;20030;-79
2021/07/22 00:26:53;;;;;;;10.32;6.00;;;;;;;;;;5006847;28;20084;-77
2021/07/22 00:29:19;;;;;;;13.65;6.63;;;;;;;;;;4991343;28;20022;-77
2021/07/22 00:31:45;;;;;;;8.60;6.40;;;;;;;;;;4999503;28;20037;-81
2021/07/22 00:34:11;;;;;;;7.30;5.88;;;;;;;;;;4996864;28;20030;-78
2021/07/22 00:36:37;;;;;;;8.02;5.93;;;;;;;;;;5013922;28;20104;-77
2021/07/22 00:39:03;;;;;;;10.60;5.97;;;;;;;;;;5012052;28;20038;-77
2021/07/22 00:41:29;;;;;;;9.48;6.20;;;;;;;;;;5013383;28;20022;-77
2021/07/22 00:43:56;;;;;;;8.02;5.63;;;;;;;;;;5013824;28;20033;-77
2021/07/22 00:46:22;;;;;;;9.65;5.63;;;;;;;;;;4996138;28;20100;-77
2021/07/22 00:48:48;;;;;;;8.18;6.07;;;;;;;;;;5014101;28;20026;-76
2021/07/22 00:51:14;;;;;;;11.93;6.15;;;;;;;;;;4997305;28;20631;-77
2021/07/22 00:53:40;;;;;;;9.27;6.07;;;;;;;;;;5015449;28;20072;-77
2021/07/22 00:56:06;;;;;;;9.65;6.82;;;;;;;;;;5015155;28;20773;-77
2021/07/22 00:58:33;;;;;;;10.45;6.75;;;;;;;;;;5016210;28;20060;-76
2021/07/22 01:00:59;;;;;;;10.48;6.13;;;;;;;;;;4997340;28;20060;-77
2021/07/22 01:03:25;;;;;;;10.02;6.50;;;;;;;;;;5017912;28;20038;-76
2021/07/22 01:05:51;;;;;;;9.38;6.28;;;;;;;;;;5016468;28;20029;-77
2021/07/22 01:08:17;;;;;;;10.98;7.10;;;;;;;;;;5019740;28;20018;-77
2021/07/22 01:10:43;;;;;;;10.75;6.95;;;;;;;;;;5001115;28;20021;-77
2021/07/22 01:13:09;;;;;;;12.02;6.35;;;;;;;;;;5018128;28;20038;-76
2021/07/22 01:15:35;;;;;;;10.40;7.15;;;;;;;;;;5018311;28;20122;-76
2021/07/22 01:18:01;;;;;;;10.20;6.68;;;;;;;;;;5000636;28;20029;-76
2021/07/22 01:20:28;;;;;;;12.00;6.50;;;;;;;;;;5017585;28;20034;-76
2021/07/22 01:22:54;;;;;;;11.43;6.85;;;;;;;;;;5017434;28;20113;-77
2021/07/22 01:25:21;;;;;;;9.35;6.53;;;;;;;;;;4998665;28;20029;-77
2021/07/22 01:27:47;;;;;;;11.57;7.05;;;;;;;;;;5012492;28;20517;-76
2021/07/22 01:30:14;;;;;;;10.25;6.68;;;;;;;;;;5017622;28;20026;-76
2021/07/22 01:32:41;;;;;;;8.75;6.53;;;;;;;;;;5017842;28;20056;-77
2021/07/22 01:35:07;;;;;;;11.10;7.07;;;;;;;;;;4998730;28;20030;-77
2021/07/22 01:37:34;;;;;;;11.95;7.60;;;;;;;;;;5014267;28;20032;-73
2021/07/22 01:40:00;;;;;;;16.08;7.45;;;;;;;;;;5014749;28;20018;-76
2021/07/22 01:42:26;;;;;;;9.20;6.45;;;;;;;;;;5014998;28;20394;-77
2021/07/22 01:44:52;;;;;;;10.18;6.50;;;;;;;;;;4997756;28;20094;-76
2021/07/22 01:47:18;;;;;;;11.23;6.78;;;;;;;;;;5015008;28;20101;-76
2021/07/22 01:49:44;;;;;;;9.90;6.30;;;;;;;;;;5015173;28;20105;-75
2021/07/22 01:52:11;;;;;;;10.05;7.20;;;;;;;;;;5014802;28;20516;-75
2021/07/22 01:54:37;;;;;;;11.82;6.70;;;;;;;;;;4997198;28;20044;-77
2021/07/22 01:57:03;;;;;;;11.25;6.47;;;;;;;;;;5015096;28;20037;-77
2021/07/22 01:59:35;;;;;;;10.18;7.07;;;;;;;;;;5014412;28;20030;-77
2021/07/22 02:02:05;;;;;;;9.75;7.15;;;;;;;;;;5015098;28;20057;-75
2021/07/22 02:04:31;;;;;;;11.38;6.60;;;;;;;;;;5014518;28;20072;-76
2021/07/22 02:06:57;;;;;;;9.45;6.85;;;;;;;;;;4993453;28;20023;-75
2021/07/22 02:09:23;;;;;;;9.20;6.50;;;;;;;;;;4994690;28;20030;-76
2021/07/22 02:11:49;;;;;;;11.80;6.28;;;;;;;;;;5001268;28;20033;-75
2021/07/22 02:14:15;;;;;;;12.02;6.75;;;;;;;;;;5014732;28;20145;-75
2021/07/22 02:16:41;;;;;;;10.77;6.38;;;;;;;;;;5014717;28;20529;-75
2021/07/22 02:19:07;;;;;;;10.00;6.72;;;;;;;;;;5012899;28;20048;-76
2021/07/22 02:21:34;;;;;;;9.68;6.30;;;;;;;;;;5012890;28;20033;-76
2021/07/22 02:24:00;;;;;;;9.52;6.35;;;;;;;;;;5014487;28;20033;-75
2021/07/22 02:26:26;;;;;;;9.18;6.82;;;;;;;;;;5012910;28;20030;-75
2021/07/22 02:28:53;;;;;;;9.45;6.72;;;;;;;;;;4993229;28;20509;-75
2021/07/22 02:31:19;;;;;;;10.68;6.57;;;;;;;;;;4997143;28;20039;-75
2021/07/22 02:33:45;;;;;;;11.23;6.55;;;;;;;;;;5014512;28;20041;-75
2021/07/22 02:36:11;;;;;;;11.95;6.70;;;;;;;;;;5014370;28;20041;-76
2021/07/22 02:38:37;;;;;;;10.15;6.10;;;;;;;;;;5013580;28;20030;-77
2021/07/22 02:41:06;;;;;;;10.27;6.72;;;;;;;;;;5013555;28;20028;-75
2021/07/22 02:43:33;;;;;;;8.52;6.00;;;;;;;;;;4994543;28;20395;-75
2021/07/22 02:46:04;;;;;;;9.77;6.68;;;;;;;;;;5012705;28;20075;-74
2021/07/22 02:48:30;;;;;;;9.68;6.57;;;;;;;;;;5014167;28;20459;-75
2021/07/22 02:50:56;;;;;;;9.93;5.57;;;;;;;;;;4994660;28;20053;-75
2021/07/22 02:53:22;;;;;;;7.40;5.65;;;;;;;;;;5013767;28;20121;-75
2021/07/22 02:55:48;;;;;;;8.93;6.53;;;;;;;;;;5014328;28;20036;-76
2021/07/22 02:58:14;;;;;;;10.80;6.28;;;;;;;;;;5014042;28;20037;-75
2021/07/22 03:00:40;;;;;;;7.65;6.13;;;;;;;;;;5013501;28;20533;-74
2021/07/22 03:03:06;;;;;;;9.13;6.55;;;;;;;;;;5012618;28;20038;-75
2021/07/22 03:05:31;;;;;;;7.93;5.93;;;;;;;;;;4996323;28;20425;-75
2021/07/22 03:08:01;;;;;;;12.23;6.22;;;;;;;;;;5013448;28;20030;-76
2021/07/22 03:10:27;;;;;;;8.48;5.93;;;;;;;;;;5013307;28;20022;-76
2021/07/22 03:12:53;;;;;;;9.40;6.30;;;;;;;;;;5013430;28;20022;-75
2021/07/22 03:15:19;;;;;;;8.82;6.32;;;;;;;;;;5013837;28;20022;-75
2021/07/22 03:17:45;;;;;;;8.18;6.32;;;;;;;;;;5013550;28;20034;-76
2021/07/22 03:20:12;;;;;;;11.80;6.55;;;;;;;;;;5013015;28;20092;-76
2021/07/22 03:22:38;;;;;;;7.05;5.70;;;;;;;;;;4991906;28;20049;-76
2021/07/22 03:25:04;;;;;;;8.10;5.60;;;;;;;;;;4993907;28;20518;-77
2021/07/22 03:27:30;;;;;;;8.75;6.30;;;;;;;;;;5005530;28;20038;-76
2021/07/22 03:29:56;;;;;;;8.82;6.07;;;;;;;;;;5012375;28;20092;-76
2021/07/22 03:32:22;;;;;;;9.10;5.60;;;;;;;;;;5011720;28;20037;-75
2021/07/22 03:34:48;;;;;;;11.23;6.88;;;;;;;;;;5013098;28;20104;-76
2021/07/22 03:37:14;;;;;;;9.48;6.18;;;;;;;;;;5012733;28;20032;-75
2021/07/22 03:39:40;;;;;;;8.77;5.95;;;;;;;;;;5011976;28;20448;-76
2021/07/22 03:42:07;;;;;;;8.40;6.32;;;;;;;;;;4994977;28;20121;-76
2021/07/22 03:44:33;;;;;;;8.20;5.68;;;;;;;;;;4995395;28;20033;-75
2021/07/22 03:46:59;;;;;;;8.38;5.80;;;;;;;;;;5012937;28;20032;-77
2021/07/22 03:49:25;;;;;;;10.50;6.07;;;;;;;;;;5012461;28;20131;-77
2021/07/22 03:51:55;;;;;;;7.88;6.45;;;;;;;;;;5012400;28;20104;-74
2021/07/22 03:54:21;;;;;;;7.95;6.18;;;;;;;;;;5013035;28;20032;-75
2021/07/22 03:56:47;;;;;;;9.02;6.68;;;;;;;;;;5012732;28;20486;-75
2021/07/22 03:59:16;;;;;;;9.02;6.65;;;;;;;;;;4994643;28;20036;-74
2021/07/22 04:01:43;;;;;;;12.68;8.95;;;;;;;;;;5012227;28;20029;-75
2021/07/22 04:04:09;;;;;;;11.68;7.55;;;;;;;;;;5012637;28;20026;-75
2021/07/22 04:06:40;;;;;;;12.40;7.70;;;;;;;;;;4994945;28;20018;-74
2021/07/22 04:09:06;;;;;;;10.18;7.35;;;;;;;;;;5012235;28;20034;-74
2021/07/22 04:11:32;;;;;;;9.02;7.10;;;;;;;;;;4994748;28;20033;-75
2021/07/22 04:13:58;;;;;;;11.82;6.95;;;;;;;;;;4995139;28;20034;-75
2021/07/22 04:16:24;;;;;;;10.65;7.10;;;;;;;;;;5012733;28;20101;-75
2021/07/22 04:18:50;;;;;;;11.75;7.78;;;;;;;;;;5012153;28;20058;-75
2021/07/22 04:21:16;;;;;;;10.60;7.38;;;;;;;;;;5010167;28;20030;-75
2021/07/22 04:23:42;;;;;;;11.27;7.30;;;;;;;;;;5012156;28;20033;-75
2021/07/22 04:26:13;;;;;;;10.48;7.50;;;;;;;;;;5012226;28;20026;-74
2021/07/22 04:28:39;;;;;;;12.50;7.72;;;;;;;;;;5014148;23;20061;-76
2021/07/22 04:31:05;;;;;;;15.73;8.52;;;;;;;;;;5011560;28;20111;-76
2021/07/22 04:33:31;;;;;;;13.25;8.52;;;;;;;;;;5012054;28;20038;-76
2021/07/22 04:35:57;;;;;;;15.40;8.02;;;;;;;;;;5012251;28;20088;-76
2021/07/22 04:38:23;;;;;;;12.23;7.65;;;;;;;;;;5000191;28;20041;-76
2021/07/22 04:40:49;;;;;;;13.82;8.10;;;;;;;;;;4991386;28;20026;-76
2021/07/22 04:43:15;;;;;;;14.40;7.57;;;;;;;;;;4991193;28;20042;-76
2021/07/22 04:45:41;;;;;;;10.20;7.85;;;;;;;;;;4992389;28;20313;-76
2021/07/22 04:48:07;;;;;;;10.98;7.57;;;;;;;;;;4999128;28;20088;-76
2021/07/22 04:50:33;;;;;;;9.35;7.07;;;;;;;;;;4992831;28;20035;-76
2021/07/22 04:53:00;;;;;;;10.55;6.82;;;;;;;;;;4998412;28;20030;-76
2021/07/22 04:55:26;;;;;;;12.93;7.10;;;;;;;;;;5011984;28;20033;-76
2021/07/22 04:58:01;;;;;;;17.58;8.75;;;;;;;;;;5006000;28;20034;-76
2021/07/22 05:00:27;;;;;;;8.95;6.35;;;;;;;;;;4990365;28;20026;-76
2021/07/22 05:02:59;;;;;;;11.73;7.05;;;;;;;;;;4996186;28;20501;-76
2021/07/22 05:05:29;;;;;;;9.35;6.00;;;;;;;;;;5012226;28;20078;-76
2021/07/22 05:07:55;;;;;;;8.27;6.18;;;;;;;;;;5005514;28;20092;-76
2021/07/22 05:10:21;;;;;;;10.02;5.80;;;;;;;;;;4991778;28;20030;-76
2021/07/22 05:12:47;;;;;;;8.32;5.90;;;;;;;;;;4996837;28;20092;-76
2021/07/22 05:15:13;;;;;;;10.88;6.10;;;;;;;;;;4999016;28;20050;-77
2021/07/22 05:17:39;;;;;;;6.93;5.35;;;;;;;;;;4995935;28;20479;-77
2021/07/22 05:20:06;;;;;;;7.57;5.55;;;;;;;;;;4991806;28;20030;-76
2021/07/22 05:22:32;;;;;;;7.97;4.97;;;;;;;;;;4993195;28;20061;-77
2021/07/22 05:24:58;;;;;;;9.30;5.60;;;;;;;;;;4991851;28;20038;-76
2021/07/22 05:27:24;;;;;;;9.95;5.53;;;;;;;;;;4993068;28;20045;-76
2021/07/22 05:29:50;;;;;;;10.82;5.57;;;;;;;;;;5011591;28;20037;-76
2021/07/22 05:32:16;;;;;;;8.63;5.30;;;;;;;;;;5012229;28;20042;-76
2021/07/22 05:34:42;;;;;;;11.10;6.28;;;;;;;;;;4992825;28;20435;-76
2021/07/22 05:37:11;;;;;;;7.68;5.15;;;;;;;;;;4995062;28;20093;-77
2021/07/22 05:39:36;;;;;;;8.88;5.70;;;;;;;;;;4991155;28;20113;-76
2021/07/22 05:42:04;;;;;;;15.75;6.03;;;;;;;;;;4993594;28;20122;-75
2021/07/22 05:44:30;;;;;;;11.15;5.28;;;;;;;;;;4992778;28;20030;-76
2021/07/22 05:46:56;;;;;;;13.68;5.40;;;;;;;;;;4992134;28;20030;-76
2021/07/22 05:49:22;;;;;;;11.88;5.40;;;;;;;;;;5008496;28;20565;-76
2021/07/22 05:51:48;;;;;;;7.32;4.82;;;;;;;;;;5009774;28;20036;-76
2021/07/22 05:54:14;;;;;;;7.20;5.07;;;;;;;;;;5000433;28;20042;-76
2021/07/22 05:56:40;;;;;;;9.85;5.40;;;;;;;;;;5007873;28;20022;-76
2021/07/22 05:59:06;;;;;;;12.23;5.50;;;;;;;;;;4987849;28;20557;-76
2021/07/22 06:01:32;;;;;;;11.10;5.07;;;;;;;;;;4977871;28;20050;-76
2021/07/22 06:03:58;;;;;;;12.00;5.05;;;;;;;;;;4985872;28;20110;-76
2021/07/22 06:06:24;;;;;;;7.43;5.18;;;;;;;;;;4978141;28;20081;-76
2021/07/22 06:08:50;;;;;;;8.18;5.15;;;;;;;;;;5000899;28;20030;-76
2021/07/22 06:11:16;;;;;;;9.18;4.60;;;;;;;;;;4993869;28;20039;-76
2021/07/22 06:13:42;;;;;;;7.28;5.22;;;;;;;;;;4977961;28;20035;-76
2021/07/22 06:16:10;;;;;;;9.13;5.03;;;;;;;;;;4995037;28;20019;-77
2021/07/22 06:18:36;;;;;;;8.70;5.35;;;;;;;;;;5006103;28;20026;-77
2021/07/22 06:21:02;;;;;;;6.90;5.10;;;;;;;;;;5013150;28;20029;-76
2021/07/22 06:23:28;;;;;;;8.77;4.90;;;;;;;;;;4995822;28;20035;-77
2021/07/22 06:25:57;;;;;;;8.00;4.70;;;;;;;;;;4995403;28;20034;-76
2021/07/22 06:28:24;;;;;;;8.60;4.72;;;;;;;;;;5004004;28;20037;-77
2021/07/22 06:30:51;;;;;;;10.75;5.20;;;;;;;;;;5013716;28;20084;-77
2021/07/22 06:33:17;;;;;;;9.07;4.68;;;;;;;;;;5005445;28;20045;-76
2021/07/22 06:35:43;;;;;;;7.45;5.03;;;;;;;;;;4994702;28;20026;-76
2021/07/22 06:38:09;;;;;;;7.90;5.22;;;;;;;;;;5001972;28;20049;-76
2021/07/22 06:40:35;;;;;;;7.15;5.03;;;;;;;;;;5014272;28;20109;-76
2021/07/22 06:43:01;;;;;;;8.23;5.50;;;;;;;;;;5008162;28;20030;-75
2021/07/22 06:45:27;;;;;;;7.68;5.55;;;;;;;;;;4988872;28;20073;-76
2021/07/22 06:47:53;;;;;;;7.32;4.60;;;;;;;;;;4999562;28;20030;-76
2021/07/22 06:50:19;;;;;;;6.45;4.18;;;;;;;;;;5003188;28;20027;-76
2021/07/22 06:52:45;;;;;;;7.72;4.57;;;;;;;;;;4998479;28;20574;-76
2021/07/22 06:55:11;;;;;;;5.85;4.30;;;;;;;;;;5013663;28;20517;-76
2021/07/22 06:57:37;;;;;;;8.38;5.10;;;;;;;;;;5010831;28;20030;-78
2021/07/22 07:00:05;;;;;;;8.82;5.40;;;;;;;;;;4997230;28;20031;-78
2021/07/22 07:02:31;;;;;;;8.27;5.10;;;;;;;;;;5000521;28;20030;-79
2021/07/22 07:04:57;;;;;;;8.75;5.78;;;;;;;;;;5015670;28;20608;-79
2021/07/22 07:07:23;;;;;;;7.65;4.82;;;;;;;;;;4998785;28;20061;-78
2021/07/22 07:09:49;;;;;;;8.20;4.90;;;;;;;;;;5016965;28;20034;-78
2021/07/22 07:12:15;;;;;;;8.13;5.43;;;;;;;;;;5016760;28;20513;-79
2021/07/22 07:14:41;;;;;;;13.65;5.13;;;;;;;;;;5009624;28;20084;-79
2021/07/22 07:17:07;;;;;;;8.02;4.72;;;;;;;;;;4997754;28;20026;-79
2021/07/22 07:19:33;;;;;;;7.40;5.03;;;;;;;;;;5015784;28;20422;-79
2021/07/22 07:21:59;;;;;;;6.57;5.28;;;;;;;;;;5013637;28;20076;-77
2021/07/22 07:24:25;;;;;;;9.60;5.13;;;;;;;;;;4995398;28;20034;-77
2021/07/22 07:26:51;;;;;;;9.35;4.97;;;;;;;;;;4992442;28;20026;-77
2021/07/22 07:29:17;;;;;;;8.60;5.25;;;;;;;;;;5009644;28;20453;-77
2021/07/22 07:31:43;;;;;;;6.03;4.70;;;;;;;;;;5013360;28;20030;-77
2021/07/22 07:34:09;;;;;;;10.23;4.90;;;;;;;;;;5009715;28;20069;-77
2021/07/22 07:36:41;;;;;;;7.25;5.07;;;;;;;;;;4991539;28;20068;-77
2021/07/22 07:39:07;;;;;;;7.57;4.90;;;;;;;;;;4991742;28;20034;-77
2021/07/22 07:41:33;;;;;;;6.43;4.40;;;;;;;;;;4993664;28;20023;-77
2021/07/22 07:43:59;;;;;;;7.78;4.85;;;;;;;;;;5002684;28;20517;-77
2021/07/22 07:46:25;;;;;;;8.45;4.38;;;;;;;;;;4993605;28;20038;-77
2021/07/22 07:48:50;;;;;;;9.90;4.60;;;;;;;;;;5006278;28;20049;-77
2021/07/22 07:51:16;;;;;;;7.18;4.65;;;;;;;;;;4995793;28;20058;-77
2021/07/22 07:53:43;;;;;;;7.45;4.97;;;;;;;;;;4994109;28;20043;-77
2021/07/22 07:56:09;;;;;;;8.90;4.38;;;;;;;;;;4974265;28;20438;-78
2021/07/22 07:58:35;;;;;;;7.43;4.68;;;;;;;;;;4996689;28;20037;-77
2021/07/22 08:01:01;;;;;;;6.40;4.68;;;;;;;;;;5013604;28;20093;-78
2021/07/22 08:03:27;;;;;;;6.20;4.22;;;;;;;;;;4999509;28;20117;-77
2021/07/22 08:05:53;;;;;;;7.32;4.65;;;;;;;;;;4997064;28;20038;-78
2021/07/22 08:08:20;;;;;;;8.52;6.28;;;;;;;;;;5005398;28;20034;-75
2021/07/22 08:10:46;;;;;;;6.50;4.65;;;;;;;;;;5005284;28;20037;-76
2021/07/22 08:13:12;;;;;;;7.78;4.53;;;;;;;;;;4993327;28;20034;-78
2021/07/22 08:15:41;;;;;;;6.55;5.07;;;;;;;;;;4993623;28;20360;-78
2021/07/22 08:18:07;;;;;;;7.00;4.57;;;;;;;;;;5015078;28;20034;-78
2021/07/22 08:20:33;;;;;;;8.75;4.90;;;;;;;;;;4994507;28;20472;-78
2021/07/22 08:22:59;;;;;;;5.82;4.55;;;;;;;;;;5008861;28;20030;-75
2021/07/22 08:25:25;;;;;;;7.47;4.85;;;;;;;;;;5012185;28;20038;-76
2021/07/22 08:27:51;;;;;;;8.00;4.97;;;;;;;;;;5012331;28;20120;-78
2021/07/22 08:30:17;;;;;;;6.65;5.05;;;;;;;;;;5011902;28;20037;-75
2021/07/22 08:32:43;;;;;;;7.70;4.80;;;;;;;;;;4985924;28;20035;-76
2021/07/22 08:35:09;;;;;;;8.88;4.85;;;;;;;;;;4972998;28;20039;-76
2021/07/22 08:37:35;;;;;;;8.52;4.53;;;;;;;;;;4972976;28;20039;-76
2021/07/22 08:40:04;;;;;;;6.55;4.55;;;;;;;;;;4972944;28;20023;-77
2021/07/22 08:42:33;;;;;;;8.45;4.85;;;;;;;;;;4973004;28;20380;-76
2021/07/22 08:44:59;;;;;;;6.85;4.57;;;;;;;;;;4993124;28;20037;-76
2021/07/22 08:47:25;;;;;;;6.68;4.65;;;;;;;;;;4992148;28;20034;-76
2021/07/22 08:49:52;;;;;;;6.57;4.75;;;;;;;;;;4991754;28;20494;-76
2021/07/22 08:52:18;;;;;;;8.13;4.82;;;;;;;;;;4992142;28;20707;-76
2021/07/22 08:54:44;;;;;;;9.77;4.82;;;;;;;;;;5018778;28;20030;-76
2021/07/22 08:57:11;;;;;;;7.53;4.53;;;;;;;;;;5011838;28;20025;-76
2021/07/22 08:59:37;;;;;;;6.75;4.88;;;;;;;;;;5012077;28;20068;-77
2021/07/22 09:02:04;;;;;;;12.18;4.88;;;;;;;;;;4999765;28;20088;-76
2021/07/22 09:04:31;;;;;;;8.48;4.55;;;;;;;;;;4992253;28;20030;-76
2021/07/22 09:06:57;;;;;;;10.50;4.70;;;;;;;;;;4992059;28;20023;-77
2021/07/22 09:09:23;;;;;;;9.40;4.70;;;;;;;;;;4991869;28;20022;-76
2021/07/22 09:11:54;;;;;;;9.43;4.95;;;;;;;;;;4987902;28;20026;-77
2021/07/22 09:14:20;;;;;;;7.30;3.95;;;;;;;;;;4991930;28;20372;-76
2021/07/22 09:16:46;;;;;;;8.07;4.05;;;;;;;;;;4992637;28;20414;-77
2021/07/22 09:19:36;;;;;;;9.68;4.65;;;;;;;;;;4991809;28;20030;-76
2021/07/22 09:22:03;;;;;;;7.55;4.55;;;;;;;;;;4984930;28;20384;-76
2021/07/22 09:24:29;;;;;;;11.48;5.05;;;;;;;;;;4991822;28;20029;-77
2021/07/22 09:26:56;;;;;;;10.35;4.72;;;;;;;;;;4992566;28;20049;-76
2021/07/22 09:29:22;;;;;;;6.85;4.40;;;;;;;;;;4995016;28;20030;-76
2021/07/22 09:31:48;;;;;;;10.05;4.88;;;;;;;;;;4994583;28;20499;-76
2021/07/22 09:34:23;;;;;;;8.65;5.03;;;;;;;;;;4995740;28;20038;-76
2021/07/22 09:36:49;;;;;;;8.02;4.15;;;;;;;;;;4995843;28;20025;-76
2021/07/22 09:39:22;;;;;;;6.78;4.38;;;;;;;;;;5010616;28;20034;-76
2021/07/22 09:41:56;;;;;;;5.30;3.83;;;;;;;;;;5006321;28;20030;-76
2021/07/22 09:44:38;;;;;;;6.78;4.57;;;;;;;;;;4989098;28;20022;-76
2021/07/22 09:47:06;;;;;;;7.30;4.13;;;;;;;;;;5007837;28;20038;-76
2021/07/22 09:49:33;;;;;;;8.88;4.82;;;;;;;;;;4995130;28;20022;-76
2021/07/22 09:52:02;;;;;;;13.68;4.80;;;;;;;;;;4995656;28;20034;-77
2021/07/22 09:54:35;;;;;;;7.10;4.38;;;;;;;;;;4994059;28;20022;-76
2021/07/22 09:57:05;;;;;;;7.20;4.05;;;;;;;;;;4995443;28;20109;-76
2021/07/22 09:59:31;;;;;;;8.93;4.55;;;;;;;;;;4994961;28;20110;-77
2021/07/22 10:01:59;;;;;;;8.02;4.57;;;;;;;;;;4995392;28;20014;-76
2021/07/22 10:04:27;;;;;;;8.43;4.30;;;;;;;;;;4995468;28;20030;-76
2021/07/22 10:06:53;;;;;;;7.55;4.78;;;;;;;;;;4986876;28;20035;-76
2021/07/22 10:09:21;;;;;;;6.80;4.82;;;;;;;;;;4991434;28;20030;-76
2021/07/22 10:11:47;;;;;;;9.00;5.18;;;;;;;;;;5007116;28;20037;-76
2021/07/22 10:14:18;;;;;;;11.15;4.70;;;;;;;;;;4992224;28;20034;-76
2021/07/22 10:16:44;;;;;;;8.07;4.90;;;;;;;;;;4995653;28;20029;-77
2021/07/22 10:19:11;;;;;;;7.32;4.57;;;;;;;;;;4995138;28;20510;-78
2021/07/22 10:21:37;;;;;;;8.15;4.53;;;;;;;;;;4995440;28;20031;-76
2021/07/22 10:24:04;;;;;;;8.07;4.63;;;;;;;;;;4995190;28;20026;-76
2021/07/22 10:26:30;;;;;;;15.50;4.25;;;;;;;;;;4996950;28;20026;-77
2021/07/22 10:28:56;;;;;;;7.55;4.20;;;;;;;;;;5003899;28;20046;-77
2021/07/22 10:31:22;;;;;;;6.13;3.78;;;;;;;;;;4996857;28;20529;-77
2021/07/22 10:33:48;;;;;;;9.38;4.13;;;;;;;;;;4998362;28;20085;-77
2021/07/22 10:36:17;;;;;;;8.38;4.45;;;;;;;;;;4995938;28;20483;-77
2021/07/22 10:38:44;;;;;;;6.32;4.40;;;;;;;;;;4994827;28;20030;-77
2021/07/22 10:41:10;;;;;;;5.78;4.22;;;;;;;;;;4994862;28;20061;-77
2021/07/22 10:43:37;;;;;;;6.22;3.85;;;;;;;;;;4990085;28;20114;-77
2021/07/22 10:46:04;;;;;;;5.60;3.80;;;;;;;;;;4993586;28;20095;-77
2021/07/22 10:48:31;;;;;;;6.82;3.72;;;;;;;;;;4990274;28;20035;-77
2021/07/22 10:50:57;;;;;;;5.93;3.45;;;;;;;;;;4995427;28;20110;-77
2021/07/22 10:53:42;;;;;;;5.53;3.95;;;;;;;;;;4994593;28;20113;-77
2021/07/22 10:56:15;;;;;;;10.68;4.60;;;;;;;;;;4994164;28;20023;-77
2021/07/22 10:58:41;;;;;;;9.65;4.53;;;;;;;;;;4994404;28;20033;-77
2021/07/22 11:01:08;;;;;;;5.32;4.22;;;;;;;;;;4993347;28;20027;-77
2021/07/22 11:03:38;;;;;;;6.85;3.97;;;;;;;;;;4994959;28;20043;-78
2021/07/22 11:06:09;;;;;;;4.55;3.88;;;;;;;;;;4995114;28;20399;-78
2021/07/22 11:08:39;;;;;;;6.65;4.18;;;;;;;;;;5007009;28;20622;-77
2021/07/22 11:11:07;;;;;;;10.98;4.00;;;;;;;;;;5014531;28;20026;-77
2021/07/22 11:13:40;;;;;;;5.82;4.32;;;;;;;;;;5014920;28;20052;-80
2021/07/22 11:16:32;;;;;;;6.85;4.10;;;;;;;;;;4997964;28;20018;-77
2021/07/22 11:19:04;;;;;;;6.75;4.30;;;;;;;;;;5013009;28;20448;-77
2021/07/22 11:21:32;;;;;;;7.40;4.43;;;;;;;;;;4995113;28;20033;-77
2021/07/22 11:23:58;;;;;;;8.50;4.65;;;;;;;;;;4994840;28;20044;-77
2021/07/22 11:26:29;;;;;;;8.40;4.75;;;;;;;;;;4995140;28;20105;-78
2021/07/22 11:28:55;;;;;;;9.32;4.93;;;;;;;;;;4996190;28;20132;-77
2021/07/22 11:31:21;;;;;;;8.70;4.47;;;;;;;;;;5007190;28;20041;-77
2021/07/22 11:33:47;;;;;;;8.85;4.10;;;;;;;;;;5014139;28;20044;-77
2021/07/22 11:36:15;;;;;;;7.47;4.80;;;;;;;;;;5012340;28;20086;-77
2021/07/22 11:38:41;;;;;;;6.80;4.80;;;;;;;;;;5012549;28;20376;-77
2021/07/22 11:41:11;;;;;;;7.28;4.72;;;;;;;;;;5006054;28;20034;-77
2021/07/22 11:43:58;;;;;;;7.90;4.47;;;;;;;;;;4990622;28;20073;-77
2021/07/22 11:46:43;;;;;;;6.97;5.00;;;;;;;;;;4994308;28;20093;-77
2021/07/22 11:49:16;;;;;;;6.53;4.05;;;;;;;;;;4995940;28;20053;-77
2021/07/22 11:51:43;;;;;;;7.88;4.60;;;;;;;;;;4996261;28;20085;-77
2021/07/22 11:54:11;;;;;;;6.38;4.60;;;;;;;;;;4996117;28;20081;-77
2021/07/22 11:56:37;;;;;;;12.73;5.07;;;;;;;;;;4994889;28;20033;-77
2021/07/22 11:59:08;;;;;;;11.70;4.80;;;;;;;;;;4993436;28;20022;-77
2021/07/22 12:01:37;;;;;;;8.10;4.45;;;;;;;;;;4992304;28;20023;-77
2021/07/22 12:04:03;;;;;;;8.98;4.30;;;;;;;;;;4991002;28;20030;-76
2021/07/22 12:06:29;;;;;;;21.73;5.30;;;;;;;;;;5008836;28;20034;-77
2021/07/22 12:09:05;;;;;;;8.57;4.57;;;;;;;;;;5011927;28;20026;-76
2021/07/22 12:11:45;;;;;;;8.13;3.75;;;;;;;;;;5012630;28;20490;-76
2021/07/22 12:14:11;;;;;;;7.55;3.95;;;;;;;;;;5009224;28;20031;-77
2021/07/22 12:16:37;;;;;;;6.05;4.60;;;;;;;;;;4986608;28;20109;-77
2021/07/22 12:19:03;;;;;;;6.30;4.00;;;;;;;;;;5012067;28;20076;-77
2021/07/22 12:21:30;;;;;;;8.13;4.20;;;;;;;;;;5012954;28;20076;-77
2021/07/22 12:24:15;;;;;;;7.80;4.35;;;;;;;;;;5004464;28;20041;-77
2021/07/22 12:26:41;;;;;;;7.80;4.32;;;;;;;;;;4993379;28;20026;-77
2021/07/22 12:29:07;;;;;;;6.68;4.32;;;;;;;;;;4998143;28;20458;-77
2021/07/22 12:31:38;;;;;;;11.27;4.40;;;;;;;;;;4992803;28;20041;-77
2021/07/22 12:34:04;;;;;;;7.97;4.93;;;;;;;;;;4992761;28;20031;-77
2021/07/22 12:36:31;;;;;;;8.18;4.63;;;;;;;;;;4976591;28;20031;-77
2021/07/22 12:39:17;;;;;;;5.88;4.40;;;;;;;;;;4986602;28;20058;-77
2021/07/22 12:41:44;;;;;;;7.05;4.78;;;;;;;;;;5003456;28;20026;-77
2021/07/22 12:44:10;;;;;;;5.85;5.10;;;;;;;;;;5004157;28;20499;-77
2021/07/22 12:46:36;;;;;;;6.68;4.90;;;;;;;;;;4994163;28;20042;-78
2021/07/22 12:49:03;;;;;;;7.90;4.32;;;;;;;;;;4992203;28;20034;-77
2021/07/22 12:51:29;;;;;;;7.05;4.57;;;;;;;;;;4995185;28;20037;-78
2021/07/22 12:53:56;;;;;;;5.28;4.47;;;;;;;;;;4999112;28;20117;-78
2021/07/22 12:56:23;;;;;;;8.18;4.40;;;;;;;;;;4997021;28;20026;-78
2021/07/22 12:58:50;;;;;;;7.07;4.88;;;;;;;;;;4997991;28;20023;-78
2021/07/22 13:01:18;;;;;;;10.07;4.68;;;;;;;;;;4998223;28;20049;-78
2021/07/22 13:03:44;;;;;;;8.05;4.32;;;;;;;;;;5004115;28;20089;-78
2021/07/22 13:06:11;;;;;;;7.97;4.65;;;;;;;;;;5017947;28;20053;-78
2021/07/22 13:08:37;;;;;;;6.10;3.97;;;;;;;;;;5021488;28;20040;-78
2021/07/22 13:11:07;;;;;;;11.18;4.50;;;;;;;;;;5023048;28;20030;-77
2021/07/22 13:13:37;;;;;;;9.10;4.95;;;;;;;;;;5017305;28;20041;-77
2021/07/22 13:16:04;;;;;;;10.05;4.60;;;;;;;;;;5004247;28;20391;-77
2021/07/22 13:18:30;;;;;;;5.43;4.13;;;;;;;;;;5031613;28;20057;-77
2021/07/22 13:20:56;;;;;;;8.70;4.55;;;;;;;;;;5022899;28;20030;-77
2021/07/22 13:23:22;;;;;;;5.93;4.38;;;15.80;99.90;;;;;;5023705;28;20038;-78
2021/07/22 13:25:48;;;;;;;7.93;4.68;;;38.50;51.60;;;;;;5024941;28;20036;-78
2021/07/22 13:28:13;;;;;;;8.13;4.68;;;38.70;50.50;;;;;;5024901;28;20063;-81
2021/07/22 13:30:39;;;;;;;8.50;4.78;;;38.50;48.80;;;;;;5000706;28;20047;-78
2021/07/22 13:33:05;;;;;;;7.43;4.97;;;38.70;49.90;;;;;;5002226;28;20398;-78
2021/07/22 13:35:33;;;;;;;7.38;4.38;;;38.30;48.90;;;;;;5005032;28;20041;-79
2021/07/22 13:38:03;;;;;;;7.63;4.93;;;38.60;48.80;;;;;;5003182;28;20101;-78
2021/07/22 13:40:29;;;;;;;15.70;5.07;;;39.00;49.70;;;;;;5006420;28;20018;-79
2021/07/22 13:42:55;;;;;;;14.63;5.50;;;38.90;47.90;;;;;;5023048;28;20410;-80
2021/07/22 13:45:21;;;;;;;12.35;5.32;;;38.50;48.90;;;;;;5006772;28;20041;-80
2021/07/22 13:47:46;;;;;;;10.15;5.20;;;37.90;48.70;;;;;;5007090;28;20446;-80
2021/07/22 13:50:12;;;;;;;8.20;4.80;;;38.40;50.40;;;;;;5005880;28;20106;-80
2021/07/22 13:52:39;;;;;;;11.98;5.43;;;38.60;48.40;;;;;;5009866;28;20041;-80
2021/07/22 13:55:08;;;;;;;8.70;5.22;;;40.20;50.40;;;;;;5026389;28;20041;-80
2021/07/22 13:57:34;;;;;;;11.85;5.90;;;38.00;48.50;;;;;;5012650;28;20030;-80
2021/07/22 13:59:59;;;;;;;6.88;5.28;;;38.30;49.60;;;;;;5012477;28;20514;-80
2021/07/22 14:02:25;;;;;;;13.63;5.70;;;38.70;48.30;;;;;;5012936;28;20027;-79
2021/07/22 14:04:51;;;;;;;8.20;4.75;;;38.40;48.10;;;;;;5011128;28;20109;-80
2021/07/22 14:07:17;;;;;;;11.93;5.82;;;38.00;48.50;;;;;;5032879;28;20098;-80
2021/07/22 14:09:42;;;;;;;8.38;5.35;;;38.40;48.80;;;;;;5019739;28;20031;-80
2021/07/22 14:12:08;;;;;;;12.50;5.95;;;38.60;48.90;;;;;;5012645;28;20030;-80
2021/07/22 14:14:34;;;;;;;8.70;5.32;;;38.90;46.80;;;;;;5019870;28;20037;-80
2021/07/22 14:16:59;;;;;;;6.55;4.85;;;38.50;48.10;;;;;;5010418;28;20802;-80
2021/07/22 14:19:25;;;;;;;13.52;6.05;;;38.50;48.50;;;;;;5028463;28;20029;-81
2021/07/22 14:21:51;;;;;;;15.20;5.82;;;38.80;48.60;;;;;;5025276;28;20030;-80
2021/07/22 14:24:17;;;;;;;11.35;5.85;;;39.60;48.60;;;;;;5026469;28;20034;-79
2021/07/22 14:26:43;;;;;;;10.15;5.55;;;40.20;46.80;;;;;;5027724;28;20061;-79